sensor_id;sensor_type;location;lat;lon;timestamp;P1;durP1;ratioP1;P2;durP2;ratioP2
22922;SDS011;11627;51.322;22.816;2024-03-08T00:01:37;84.95;;;34.60;;
22922;SDS011;11627;51.322;22.816;2024-03-08T00:04:07;83.63;;;32.67;;
22922;SDS011;11627;51.322;22.816;2024-03-08T00:06:34;83.07;;;32.95;;
22922;SDS011;11627;51.322;22.816;2024-03-08T00:09:01;86.20;;;32.63;;
22922;SDS011;11627;51.322;22.816;2024-03-08T00:11:28;89.28;;;34.28;;
22922;SDS011;11627;51.322;22.816;2024-03-08T00:13:58;96.47;;;36.00;;
22922;SDS011;11627;51.322;22.816;2024-03-08T00:16:25;96.57;;;35.20;;
22922;SDS011;11627;51.322;22.816;2024-03-08T00:18:52;86.95;;;32.72;;
22922;SDS011;11627;51.322;22.816;2024-03-08T00:21:19;83.90;;;33.88;;
22922;SDS011;11627;51.322;22.816;2024-03-08T00:23:46;84.30;;;32.67;;
22922;SDS011;11627;51.322;22.816;2024-03-08T00:26:14;82.05;;;34.50;;
22922;SDS011;11627;51.322;22.816;2024-03-08T00:28:42;93.70;;;35.88;;
22922;SDS011;11627;51.322;22.816;2024-03-08T00:31:10;94.70;;;35.83;;
22922;SDS011;11627;51.322;22.816;2024-03-08T00:33:37;100.45;;;36.97;;
22922;SDS011;11627;51.322;22.816;2024-03-08T00:36:06;93.70;;;36.15;;
22922;SDS011;11627;51.322;22.816;2024-03-08T00:38:34;89.68;;;35.65;;
22922;SDS011;11627;51.322;22.816;2024-03-08T00:41:01;90.95;;;35.55;;
22922;SDS011;11627;51.322;22.816;2024-03-08T00:43:28;90.18;;;36.63;;
22922;SDS011;11627;51.322;22.816;2024-03-08T00:45:58;95.03;;;37.15;;
22922;SDS011;11627;51.322;22.816;2024-03-08T00:48:25;89.80;;;37.38;;
22922;SDS011;11627;51.322;22.816;2024-03-08T00:50:52;97.20;;;37.53;;
22922;SDS011;11627;51.322;22.816;2024-03-08T00:53:19;92.68;;;37.28;;
22922;SDS011;11627;51.322;22.816;2024-03-08T00:55:46;90.97;;;35.53;;
22922;SDS011;11627;51.322;22.816;2024-03-08T00:58:13;95.03;;;35.88;;
22922;SDS011;11627;51.322;22.816;2024-03-08T01:00:41;98.45;;;35.63;;
22922;SDS011;11627;51.322;22.816;2024-03-08T01:03:30;88.65;;;36.67;;
22922;SDS011;11627;51.322;22.816;2024-03-08T01:05:57;93.80;;;36.83;;
22922;SDS011;11627;51.322;22.816;2024-03-08T01:08:26;91.32;;;36.13;;
22922;SDS011;11627;51.322;22.816;2024-03-08T01:10:54;101.15;;;38.75;;
22922;SDS011;11627;51.322;22.816;2024-03-08T01:13:21;98.05;;;38.17;;
22922;SDS011;11627;51.322;22.816;2024-03-08T01:15:47;96.70;;;36.00;;
22922;SDS011;11627;51.322;22.816;2024-03-08T01:18:14;96.03;;;36.10;;
22922;SDS011;11627;51.322;22.816;2024-03-08T01:20:41;83.45;;;35.08;;
22922;SDS011;11627;51.322;22.816;2024-03-08T01:23:08;90.78;;;34.70;;
22922;SDS011;11627;51.322;22.816;2024-03-08T01:25:35;94.90;;;36.97;;
22922;SDS011;11627;51.322;22.816;2024-03-08T01:28:02;93.25;;;36.83;;
22922;SDS011;11627;51.322;22.816;2024-03-08T01:30:30;91.60;;;36.47;;
22922;SDS011;11627;51.322;22.816;2024-03-08T01:32:58;93.80;;;36.58;;
22922;SDS011;11627;51.322;22.816;2024-03-08T01:35:25;84.78;;;33.92;;
22922;SDS011;11627;51.322;22.816;2024-03-08T01:37:53;91.35;;;36.22;;
22922;SDS011;11627;51.322;22.816;2024-03-08T01:40:20;83.70;;;34.55;;
22922;SDS011;11627;51.322;22.816;2024-03-08T01:42:48;90.85;;;35.75;;
22922;SDS011;11627;51.322;22.816;2024-03-08T01:45:14;85.07;;;34.28;;
22922;SDS011;11627;51.322;22.816;2024-03-08T01:47:48;89.88;;;34.35;;
22922;SDS011;11627;51.322;22.816;2024-03-08T01:50:14;92.43;;;35.08;;
22922;SDS011;11627;51.322;22.816;2024-03-08T01:52:42;94.72;;;34.28;;
22922;SDS011;11627;51.322;22.816;2024-03-08T01:55:09;87.75;;;35.65;;
22922;SDS011;11627;51.322;22.816;2024-03-08T01:57:40;96.43;;;37.47;;
22922;SDS011;11627;51.322;22.816;2024-03-08T02:00:08;100.30;;;36.58;;
22922;SDS011;11627;51.322;22.816;2024-03-08T02:02:36;123.57;;;42.05;;
22922;SDS011;11627;51.322;22.816;2024-03-08T02:05:03;94.80;;;38.88;;
22922;SDS011;11627;51.322;22.816;2024-03-08T02:07:30;101.53;;;37.80;;
22922;SDS011;11627;51.322;22.816;2024-03-08T02:09:57;103.15;;;39.05;;
22922;SDS011;11627;51.322;22.816;2024-03-08T02:12:25;100.82;;;38.00;;
22922;SDS011;11627;51.322;22.816;2024-03-08T02:14:53;103.43;;;38.22;;
22922;SDS011;11627;51.322;22.816;2024-03-08T02:17:20;111.40;;;39.65;;
22922;SDS011;11627;51.322;22.816;2024-03-08T02:19:47;111.30;;;38.90;;
22922;SDS011;11627;51.322;22.816;2024-03-08T02:22:14;94.95;;;37.65;;
22922;SDS011;11627;51.322;22.816;2024-03-08T02:24:42;97.60;;;38.90;;
22922;SDS011;11627;51.322;22.816;2024-03-08T02:27:09;96.47;;;37.08;;
22922;SDS011;11627;51.322;22.816;2024-03-08T02:29:38;108.70;;;39.55;;
22922;SDS011;11627;51.322;22.816;2024-03-08T02:32:08;94.18;;;37.20;;
22922;SDS011;11627;51.322;22.816;2024-03-08T02:34:35;88.55;;;36.30;;
22922;SDS011;11627;51.322;22.816;2024-03-08T02:37:02;99.78;;;36.88;;
22922;SDS011;11627;51.322;22.816;2024-03-08T02:39:29;92.30;;;36.30;;
22922;SDS011;11627;51.322;22.816;2024-03-08T02:41:58;89.30;;;35.30;;
22922;SDS011;11627;51.322;22.816;2024-03-08T02:44:25;93.70;;;34.50;;
22922;SDS011;11627;51.322;22.816;2024-03-08T02:46:52;96.20;;;35.45;;
22922;SDS011;11627;51.322;22.816;2024-03-08T02:49:21;103.13;;;35.38;;
22922;SDS011;11627;51.322;22.816;2024-03-08T02:51:48;92.45;;;32.70;;
22922;SDS011;11627;51.322;22.816;2024-03-08T02:54:16;85.85;;;33.65;;
22922;SDS011;11627;51.322;22.816;2024-03-08T02:56:43;90.38;;;33.85;;
22922;SDS011;11627;51.322;22.816;2024-03-08T02:59:10;96.18;;;33.55;;
22922;SDS011;11627;51.322;22.816;2024-03-08T03:01:37;87.38;;;31.60;;
22922;SDS011;11627;51.322;22.816;2024-03-08T03:04:07;87.38;;;32.83;;
22922;SDS011;11627;51.322;22.816;2024-03-08T03:06:34;87.55;;;31.58;;
22922;SDS011;11627;51.322;22.816;2024-03-08T03:09:01;86.35;;;31.88;;
22922;SDS011;11627;51.322;22.816;2024-03-08T03:11:30;89.97;;;32.65;;
22922;SDS011;11627;51.322;22.816;2024-03-08T03:13:58;85.07;;;33.13;;
22922;SDS011;11627;51.322;22.816;2024-03-08T03:16:25;94.18;;;32.30;;
22922;SDS011;11627;51.322;22.816;2024-03-08T03:18:52;89.95;;;32.95;;
22922;SDS011;11627;51.322;22.816;2024-03-08T03:21:19;75.85;;;31.10;;
22922;SDS011;11627;51.322;22.816;2024-03-08T03:23:47;82.82;;;31.45;;
22922;SDS011;11627;51.322;22.816;2024-03-08T03:26:14;81.65;;;30.42;;
22922;SDS011;11627;51.322;22.816;2024-03-08T03:28:44;74.07;;;30.95;;
22922;SDS011;11627;51.322;22.816;2024-03-08T03:31:11;80.00;;;32.47;;
22922;SDS011;11627;51.322;22.816;2024-03-08T03:33:41;80.68;;;30.23;;
22922;SDS011;11627;51.322;22.816;2024-03-08T03:36:08;79.57;;;30.90;;
22922;SDS011;11627;51.322;22.816;2024-03-08T03:38:36;74.68;;;31.13;;
22922;SDS011;11627;51.322;22.816;2024-03-08T03:41:03;87.20;;;32.53;;
22922;SDS011;11627;51.322;22.816;2024-03-08T03:43:36;75.72;;;31.23;;
22922;SDS011;11627;51.322;22.816;2024-03-08T03:46:07;81.07;;;31.80;;
22922;SDS011;11627;51.322;22.816;2024-03-08T03:48:36;81.45;;;30.13;;
22922;SDS011;11627;51.322;22.816;2024-03-08T03:51:03;82.88;;;32.78;;
22922;SDS011;11627;51.322;22.816;2024-03-08T03:53:31;83.25;;;33.55;;
22922;SDS011;11627;51.322;22.816;2024-03-08T03:55:58;89.43;;;32.78;;
22922;SDS011;11627;51.322;22.816;2024-03-08T03:58:25;88.45;;;33.53;;
22922;SDS011;11627;51.322;22.816;2024-03-08T04:00:53;93.93;;;34.60;;
22922;SDS011;11627;51.322;22.816;2024-03-08T04:03:20;85.47;;;33.70;;
22922;SDS011;11627;51.322;22.816;2024-03-08T04:05:48;83.05;;;32.85;;
22922;SDS011;11627;51.322;22.816;2024-03-08T04:08:15;85.53;;;33.17;;
22922;SDS011;11627;51.322;22.816;2024-03-08T04:10:43;76.07;;;31.65;;
22922;SDS011;11627;51.322;22.816;2024-03-08T04:13:10;81.18;;;31.23;;
22922;SDS011;11627;51.322;22.816;2024-03-08T04:15:37;86.85;;;29.83;;
22922;SDS011;11627;51.322;22.816;2024-03-08T04:18:04;75.50;;;29.75;;
22922;SDS011;11627;51.322;22.816;2024-03-08T04:20:31;74.82;;;30.55;;
22922;SDS011;11627;51.322;22.816;2024-03-08T04:22:58;78.47;;;30.98;;
22922;SDS011;11627;51.322;22.816;2024-03-08T04:25:26;74.60;;;28.45;;
22922;SDS011;11627;51.322;22.816;2024-03-08T04:27:53;75.18;;;30.00;;
22922;SDS011;11627;51.322;22.816;2024-03-08T04:30:20;67.60;;;28.77;;
22922;SDS011;11627;51.322;22.816;2024-03-08T04:32:48;72.22;;;28.92;;
22922;SDS011;11627;51.322;22.816;2024-03-08T04:35:14;75.72;;;31.27;;
22922;SDS011;11627;51.322;22.816;2024-03-08T04:37:42;78.88;;;29.95;;
22922;SDS011;11627;51.322;22.816;2024-03-08T04:40:09;74.75;;;29.95;;
22922;SDS011;11627;51.322;22.816;2024-03-08T04:42:37;65.53;;;28.42;;
22922;SDS011;11627;51.322;22.816;2024-03-08T04:45:04;70.38;;;29.05;;
22922;SDS011;11627;51.322;22.816;2024-03-08T04:47:37;73.45;;;28.52;;
22922;SDS011;11627;51.322;22.816;2024-03-08T04:50:03;70.32;;;28.77;;
22922;SDS011;11627;51.322;22.816;2024-03-08T04:52:30;74.75;;;29.20;;
22922;SDS011;11627;51.322;22.816;2024-03-08T04:54:59;73.35;;;29.85;;
22922;SDS011;11627;51.322;22.816;2024-03-08T04:57:26;75.53;;;28.45;;
22922;SDS011;11627;51.322;22.816;2024-03-08T04:59:54;69.05;;;29.08;;
22922;SDS011;11627;51.322;22.816;2024-03-08T05:02:21;69.97;;;28.75;;
22922;SDS011;11627;51.322;22.816;2024-03-08T05:04:49;76.53;;;29.73;;
22922;SDS011;11627;51.322;22.816;2024-03-08T05:07:16;74.00;;;29.13;;
22922;SDS011;11627;51.322;22.816;2024-03-08T05:09:43;84.45;;;30.02;;
22922;SDS011;11627;51.322;22.816;2024-03-08T05:12:18;79.35;;;29.83;;
22922;SDS011;11627;51.322;22.816;2024-03-08T05:14:45;80.95;;;30.30;;
22922;SDS011;11627;51.322;22.816;2024-03-08T05:17:16;77.90;;;30.75;;
22922;SDS011;11627;51.322;22.816;2024-03-08T05:19:43;77.32;;;29.60;;
22922;SDS011;11627;51.322;22.816;2024-03-08T05:22:10;84.22;;;31.48;;
22922;SDS011;11627;51.322;22.816;2024-03-08T05:24:37;89.18;;;30.98;;
22922;SDS011;11627;51.322;22.816;2024-03-08T05:27:04;77.13;;;31.17;;
22922;SDS011;11627;51.322;22.816;2024-03-08T05:29:32;83.88;;;31.50;;
22922;SDS011;11627;51.322;22.816;2024-03-08T05:31:59;77.75;;;29.10;;
22922;SDS011;11627;51.322;22.816;2024-03-08T05:34:26;73.82;;;30.27;;
22922;SDS011;11627;51.322;22.816;2024-03-08T05:36:55;81.57;;;31.00;;
22922;SDS011;11627;51.322;22.816;2024-03-08T05:39:24;77.05;;;29.67;;
22922;SDS011;11627;51.322;22.816;2024-03-08T05:41:51;80.30;;;29.77;;
22922;SDS011;11627;51.322;22.816;2024-03-08T05:44:19;91.90;;;33.33;;
22922;SDS011;11627;51.322;22.816;2024-03-08T05:46:46;78.55;;;32.30;;
22922;SDS011;11627;51.322;22.816;2024-03-08T05:49:13;93.65;;;33.70;;
22922;SDS011;11627;51.322;22.816;2024-03-08T05:51:41;88.18;;;34.17;;
22922;SDS011;11627;51.322;22.816;2024-03-08T05:54:09;89.88;;;35.47;;
22922;SDS011;11627;51.322;22.816;2024-03-08T05:56:38;87.93;;;34.25;;
22922;SDS011;11627;51.322;22.816;2024-03-08T05:59:10;85.90;;;34.15;;
22922;SDS011;11627;51.322;22.816;2024-03-08T06:01:38;84.03;;;32.38;;
22922;SDS011;11627;51.322;22.816;2024-03-08T06:04:07;87.40;;;34.10;;
22922;SDS011;11627;51.322;22.816;2024-03-08T06:06:37;91.13;;;34.53;;
22922;SDS011;11627;51.322;22.816;2024-03-08T06:09:04;87.13;;;34.28;;
22922;SDS011;11627;51.322;22.816;2024-03-08T06:11:42;80.03;;;34.45;;
22922;SDS011;11627;51.322;22.816;2024-03-08T06:14:09;89.30;;;33.83;;
22922;SDS011;11627;51.322;22.816;2024-03-08T06:16:37;91.90;;;36.85;;
22922;SDS011;11627;51.322;22.816;2024-03-08T06:19:04;82.00;;;31.48;;
22922;SDS011;11627;51.322;22.816;2024-03-08T06:21:32;88.43;;;33.35;;
22922;SDS011;11627;51.322;22.816;2024-03-08T06:23:59;87.20;;;32.88;;
22922;SDS011;11627;51.322;22.816;2024-03-08T06:26:27;79.68;;;32.85;;
22922;SDS011;11627;51.322;22.816;2024-03-08T06:28:55;84.80;;;33.55;;
22922;SDS011;11627;51.322;22.816;2024-03-08T06:31:24;81.78;;;33.50;;
22922;SDS011;11627;51.322;22.816;2024-03-08T06:33:51;83.53;;;33.15;;
22922;SDS011;11627;51.322;22.816;2024-03-08T06:36:22;82.25;;;31.50;;
22922;SDS011;11627;51.322;22.816;2024-03-08T06:38:50;79.13;;;31.45;;
22922;SDS011;11627;51.322;22.816;2024-03-08T06:41:17;84.75;;;33.88;;
22922;SDS011;11627;51.322;22.816;2024-03-08T06:43:45;74.85;;;32.55;;
22922;SDS011;11627;51.322;22.816;2024-03-08T06:46:17;88.03;;;35.45;;
22922;SDS011;11627;51.322;22.816;2024-03-08T06:48:47;74.47;;;31.00;;
22922;SDS011;11627;51.322;22.816;2024-03-08T06:51:15;84.28;;;33.42;;
22922;SDS011;11627;51.322;22.816;2024-03-08T06:53:43;84.32;;;31.50;;
22922;SDS011;11627;51.322;22.816;2024-03-08T06:56:10;82.65;;;33.58;;
22922;SDS011;11627;51.322;22.816;2024-03-08T06:58:37;83.05;;;35.03;;
22922;SDS011;11627;51.322;22.816;2024-03-08T07:01:05;77.95;;;33.33;;
22922;SDS011;11627;51.322;22.816;2024-03-08T07:03:33;82.68;;;32.38;;
22922;SDS011;11627;51.322;22.816;2024-03-08T07:06:00;84.75;;;34.75;;
22922;SDS011;11627;51.322;22.816;2024-03-08T07:08:28;83.10;;;33.85;;
22922;SDS011;11627;51.322;22.816;2024-03-08T07:10:56;79.18;;;35.00;;
22922;SDS011;11627;51.322;22.816;2024-03-08T07:13:24;88.05;;;34.78;;
22922;SDS011;11627;51.322;22.816;2024-03-08T07:15:53;85.80;;;33.33;;
22922;SDS011;11627;51.322;22.816;2024-03-08T07:18:21;84.18;;;34.42;;
22922;SDS011;11627;51.322;22.816;2024-03-08T07:20:48;78.32;;;33.78;;
22922;SDS011;11627;51.322;22.816;2024-03-08T07:23:15;84.65;;;34.25;;
22922;SDS011;11627;51.322;22.816;2024-03-08T07:26:00;86.22;;;36.17;;
22922;SDS011;11627;51.322;22.816;2024-03-08T07:28:27;90.00;;;36.53;;
22922;SDS011;11627;51.322;22.816;2024-03-08T07:30:57;95.40;;;37.67;;
22922;SDS011;11627;51.322;22.816;2024-03-08T07:33:42;85.63;;;35.03;;
22922;SDS011;11627;51.322;22.816;2024-03-08T07:36:10;93.53;;;36.28;;
22922;SDS011;11627;51.322;22.816;2024-03-08T07:38:37;98.35;;;37.75;;
22922;SDS011;11627;51.322;22.816;2024-03-08T07:41:04;98.65;;;37.00;;
22922;SDS011;11627;51.322;22.816;2024-03-08T07:43:31;82.68;;;34.55;;
22922;SDS011;11627;51.322;22.816;2024-03-08T07:45:58;84.68;;;35.35;;
22922;SDS011;11627;51.322;22.816;2024-03-08T07:48:25;84.47;;;33.80;;
22922;SDS011;11627;51.322;22.816;2024-03-08T07:50:53;86.50;;;34.75;;
22922;SDS011;11627;51.322;22.816;2024-03-08T07:53:20;78.03;;;32.33;;
22922;SDS011;11627;51.322;22.816;2024-03-08T07:55:47;80.28;;;32.85;;
22922;SDS011;11627;51.322;22.816;2024-03-08T07:58:14;71.32;;;30.48;;
22922;SDS011;11627;51.322;22.816;2024-03-08T08:00:41;68.85;;;31.95;;
22922;SDS011;11627;51.322;22.816;2024-03-08T08:03:10;71.47;;;29.67;;
22922;SDS011;11627;51.322;22.816;2024-03-08T08:05:39;67.10;;;29.27;;
22922;SDS011;11627;51.322;22.816;2024-03-08T08:08:07;70.65;;;31.10;;
22922;SDS011;11627;51.322;22.816;2024-03-08T08:10:36;60.25;;;26.77;;
22922;SDS011;11627;51.322;22.816;2024-03-08T08:13:04;62.00;;;28.90;;
22922;SDS011;11627;51.322;22.816;2024-03-08T08:15:31;61.58;;;29.40;;
22922;SDS011;11627;51.322;22.816;2024-03-08T08:18:04;48.63;;;22.95;;
22922;SDS011;11627;51.322;22.816;2024-03-08T08:20:33;56.10;;;24.33;;
22922;SDS011;11627;51.322;22.816;2024-03-08T08:23:00;57.33;;;23.35;;
22922;SDS011;11627;51.322;22.816;2024-03-08T08:25:27;43.30;;;19.73;;
22922;SDS011;11627;51.322;22.816;2024-03-08T08:27:54;55.92;;;22.70;;
22922;SDS011;11627;51.322;22.816;2024-03-08T08:30:21;55.97;;;24.08;;
22922;SDS011;11627;51.322;22.816;2024-03-08T08:32:48;51.90;;;23.50;;
22922;SDS011;11627;51.322;22.816;2024-03-08T08:35:14;49.85;;;22.77;;
22922;SDS011;11627;51.322;22.816;2024-03-08T08:37:44;47.60;;;22.38;;
22922;SDS011;11627;51.322;22.816;2024-03-08T08:40:12;50.35;;;20.98;;
22922;SDS011;11627;51.322;22.816;2024-03-08T08:42:44;48.00;;;22.40;;
22922;SDS011;11627;51.322;22.816;2024-03-08T08:45:11;48.63;;;21.70;;
22922;SDS011;11627;51.322;22.816;2024-03-08T08:47:39;48.35;;;22.00;;
22922;SDS011;11627;51.322;22.816;2024-03-08T08:50:07;45.47;;;20.98;;
22922;SDS011;11627;51.322;22.816;2024-03-08T08:52:38;43.58;;;20.30;;
22922;SDS011;11627;51.322;22.816;2024-03-08T08:55:05;45.58;;;20.83;;
22922;SDS011;11627;51.322;22.816;2024-03-08T08:57:32;46.08;;;20.38;;
22922;SDS011;11627;51.322;22.816;2024-03-08T09:00:00;52.85;;;21.23;;
22922;SDS011;11627;51.322;22.816;2024-03-08T09:02:33;45.65;;;21.52;;
22922;SDS011;11627;51.322;22.816;2024-03-08T09:05:00;43.97;;;20.05;;
22922;SDS011;11627;51.322;22.816;2024-03-08T09:07:26;40.38;;;19.20;;
22922;SDS011;11627;51.322;22.816;2024-03-08T09:09:56;49.67;;;21.00;;
22922;SDS011;11627;51.322;22.816;2024-03-08T09:12:24;45.22;;;22.00;;
22922;SDS011;11627;51.322;22.816;2024-03-08T09:14:53;43.60;;;20.05;;
22922;SDS011;11627;51.322;22.816;2024-03-08T09:17:20;41.08;;;20.08;;
22922;SDS011;11627;51.322;22.816;2024-03-08T09:19:49;49.15;;;22.05;;
22922;SDS011;11627;51.322;22.816;2024-03-08T09:22:29;42.88;;;20.27;;
22922;SDS011;11627;51.322;22.816;2024-03-08T09:24:55;44.83;;;21.00;;
22922;SDS011;11627;51.322;22.816;2024-03-08T09:27:22;43.55;;;20.95;;
22922;SDS011;11627;51.322;22.816;2024-03-08T09:29:48;44.55;;;20.35;;
22922;SDS011;11627;51.322;22.816;2024-03-08T09:32:16;45.28;;;19.63;;
22922;SDS011;11627;51.322;22.816;2024-03-08T09:34:42;51.63;;;20.98;;
22922;SDS011;11627;51.322;22.816;2024-03-08T09:37:08;45.92;;;20.48;;
22922;SDS011;11627;51.322;22.816;2024-03-08T09:39:35;48.45;;;20.60;;
22922;SDS011;11627;51.322;22.816;2024-03-08T09:42:01;44.78;;;19.80;;
22922;SDS011;11627;51.322;22.816;2024-03-08T09:44:28;41.92;;;19.10;;
22922;SDS011;11627;51.322;22.816;2024-03-08T09:46:55;41.50;;;19.75;;
22922;SDS011;11627;51.322;22.816;2024-03-08T09:49:22;38.53;;;16.90;;
22922;SDS011;11627;51.322;22.816;2024-03-08T09:51:50;36.13;;;17.33;;
22922;SDS011;11627;51.322;22.816;2024-03-08T09:54:18;33.10;;;15.18;;
22922;SDS011;11627;51.322;22.816;2024-03-08T09:56:45;33.55;;;15.02;;
22922;SDS011;11627;51.322;22.816;2024-03-08T09:59:19;30.73;;;14.48;;
22922;SDS011;11627;51.322;22.816;2024-03-08T10:02:05;32.10;;;14.10;;
22922;SDS011;11627;51.322;22.816;2024-03-08T10:04:34;32.22;;;13.95;;
22922;SDS011;11627;51.322;22.816;2024-03-08T10:07:00;23.85;;;12.32;;
22922;SDS011;11627;51.322;22.816;2024-03-08T10:09:28;24.92;;;12.25;;
22922;SDS011;11627;51.322;22.816;2024-03-08T10:11:57;25.90;;;11.70;;
22922;SDS011;11627;51.322;22.816;2024-03-08T10:14:25;26.23;;;12.63;;
22922;SDS011;11627;51.322;22.816;2024-03-08T10:16:54;23.38;;;11.13;;
22922;SDS011;11627;51.322;22.816;2024-03-08T10:19:25;21.40;;;9.68;;
22922;SDS011;11627;51.322;22.816;2024-03-08T10:21:56;23.45;;;10.63;;
22922;SDS011;11627;51.322;22.816;2024-03-08T10:24:23;24.92;;;12.60;;
22922;SDS011;11627;51.322;22.816;2024-03-08T10:26:53;27.58;;;13.60;;
22922;SDS011;11627;51.322;22.816;2024-03-08T10:29:29;27.08;;;12.82;;
22922;SDS011;11627;51.322;22.816;2024-03-08T10:31:57;20.38;;;10.32;;
22922;SDS011;11627;51.322;22.816;2024-03-08T10:34:23;28.58;;;12.55;;
22922;SDS011;11627;51.322;22.816;2024-03-08T10:36:51;24.75;;;12.27;;
22922;SDS011;11627;51.322;22.816;2024-03-08T10:42:08;28.55;;;12.57;;
22922;SDS011;11627;51.322;22.816;2024-03-08T10:45:01;26.52;;;13.55;;
22922;SDS011;11627;51.322;22.816;2024-03-08T10:48:12;21.63;;;9.93;;
22922;SDS011;11627;51.322;22.816;2024-03-08T10:51:09;15.20;;;7.13;;
22922;SDS011;11627;51.322;22.816;2024-03-08T10:53:38;24.50;;;13.57;;
22922;SDS011;11627;51.322;22.816;2024-03-08T10:56:07;19.42;;;8.68;;
22922;SDS011;11627;51.322;22.816;2024-03-08T10:58:36;17.88;;;8.10;;
22922;SDS011;11627;51.322;22.816;2024-03-08T11:01:04;19.95;;;9.23;;
22922;SDS011;11627;51.322;22.816;2024-03-08T11:03:43;17.17;;;9.15;;
22922;SDS011;11627;51.322;22.816;2024-03-08T11:06:19;17.58;;;8.95;;
22922;SDS011;11627;51.322;22.816;2024-03-08T11:09:27;22.10;;;9.65;;
22922;SDS011;11627;51.322;22.816;2024-03-08T11:15:12;18.75;;;9.48;;
22922;SDS011;11627;51.322;22.816;2024-03-08T11:17:45;19.58;;;9.77;;
22922;SDS011;11627;51.322;22.816;2024-03-08T11:23:04;17.38;;;9.10;;
22922;SDS011;11627;51.322;22.816;2024-03-08T11:33:39;15.52;;;8.60;;
22922;SDS011;11627;51.322;22.816;2024-03-08T11:36:13;23.20;;;10.93;;
22922;SDS011;11627;51.322;22.816;2024-03-08T11:38:51;22.67;;;9.80;;
22922;SDS011;11627;51.322;22.816;2024-03-08T11:41:23;19.85;;;9.18;;
22922;SDS011;11627;51.322;22.816;2024-03-08T11:44:12;19.70;;;10.10;;
22922;SDS011;11627;51.322;22.816;2024-03-08T11:46:42;21.23;;;9.90;;
22922;SDS011;11627;51.322;22.816;2024-03-08T11:49:15;19.35;;;10.00;;
22922;SDS011;11627;51.322;22.816;2024-03-08T11:51:43;20.10;;;9.75;;
22922;SDS011;11627;51.322;22.816;2024-03-08T11:54:12;19.88;;;9.75;;
22922;SDS011;11627;51.322;22.816;2024-03-08T11:56:38;20.30;;;9.90;;
22922;SDS011;11627;51.322;22.816;2024-03-08T11:59:11;17.15;;;9.13;;
22922;SDS011;11627;51.322;22.816;2024-03-08T12:02:07;19.50;;;9.80;;
22922;SDS011;11627;51.322;22.816;2024-03-08T12:04:37;19.67;;;9.50;;
22922;SDS011;11627;51.322;22.816;2024-03-08T12:07:05;19.40;;;9.55;;
22922;SDS011;11627;51.322;22.816;2024-03-08T12:09:41;20.30;;;9.43;;
22922;SDS011;11627;51.322;22.816;2024-03-08T12:12:13;17.63;;;9.73;;
22922;SDS011;11627;51.322;22.816;2024-03-08T12:14:42;18.75;;;9.18;;
22922;SDS011;11627;51.322;22.816;2024-03-08T12:17:10;19.15;;;9.93;;
22922;SDS011;11627;51.322;22.816;2024-03-08T12:19:45;17.80;;;9.13;;
22922;SDS011;11627;51.322;22.816;2024-03-08T12:22:16;19.88;;;11.05;;
22922;SDS011;11627;51.322;22.816;2024-03-08T12:24:44;21.75;;;9.65;;
22922;SDS011;11627;51.322;22.816;2024-03-08T12:27:20;20.15;;;9.50;;
22922;SDS011;11627;51.322;22.816;2024-03-08T12:29:48;19.52;;;9.50;;
22922;SDS011;11627;51.322;22.816;2024-03-08T12:32:16;18.92;;;8.95;;
22922;SDS011;11627;51.322;22.816;2024-03-08T12:34:42;19.92;;;9.38;;
22922;SDS011;11627;51.322;22.816;2024-03-08T12:37:11;18.30;;;9.43;;
22922;SDS011;11627;51.322;22.816;2024-03-08T12:39:40;18.05;;;9.18;;
22922;SDS011;11627;51.322;22.816;2024-03-08T12:42:06;18.35;;;9.35;;
22922;SDS011;11627;51.322;22.816;2024-03-08T12:44:32;20.25;;;9.70;;
22922;SDS011;11627;51.322;22.816;2024-03-08T12:46:58;20.00;;;9.07;;
22922;SDS011;11627;51.322;22.816;2024-03-08T12:49:24;19.35;;;10.05;;
22922;SDS011;11627;51.322;22.816;2024-03-08T12:51:52;21.77;;;10.57;;
22922;SDS011;11627;51.322;22.816;2024-03-08T12:54:19;23.67;;;10.05;;
22922;SDS011;11627;51.322;22.816;2024-03-08T12:56:51;19.55;;;8.75;;
22922;SDS011;11627;51.322;22.816;2024-03-08T12:59:20;18.48;;;9.00;;
22922;SDS011;11627;51.322;22.816;2024-03-08T13:01:47;18.98;;;9.63;;
22922;SDS011;11627;51.322;22.816;2024-03-08T13:04:18;21.58;;;9.55;;
22922;SDS011;11627;51.322;22.816;2024-03-08T13:06:48;21.42;;;9.93;;
22922;SDS011;11627;51.322;22.816;2024-03-08T13:09:16;18.15;;;8.98;;
22922;SDS011;11627;51.322;22.816;2024-03-08T13:11:47;17.17;;;9.20;;
22922;SDS011;11627;51.322;22.816;2024-03-08T13:14:14;17.75;;;8.63;;
22922;SDS011;11627;51.322;22.816;2024-03-08T13:16:40;18.77;;;10.25;;
22922;SDS011;11627;51.322;22.816;2024-03-08T13:19:06;19.15;;;9.93;;
22922;SDS011;11627;51.322;22.816;2024-03-08T13:21:33;16.42;;;9.35;;
22922;SDS011;11627;51.322;22.816;2024-03-08T13:24:00;15.07;;;9.38;;
22922;SDS011;11627;51.322;22.816;2024-03-08T13:26:26;18.27;;;9.88;;
22922;SDS011;11627;51.322;22.816;2024-03-08T13:28:57;18.27;;;9.77;;
22922;SDS011;11627;51.322;22.816;2024-03-08T13:31:24;17.13;;;9.77;;
22922;SDS011;11627;51.322;22.816;2024-03-08T13:33:51;18.75;;;9.00;;
22922;SDS011;11627;51.322;22.816;2024-03-08T13:36:23;22.08;;;9.60;;
22922;SDS011;11627;51.322;22.816;2024-03-08T13:38:54;19.80;;;9.35;;
22922;SDS011;11627;51.322;22.816;2024-03-08T13:41:21;20.25;;;9.38;;
22922;SDS011;11627;51.322;22.816;2024-03-08T13:43:49;21.85;;;10.35;;
22922;SDS011;11627;51.322;22.816;2024-03-08T13:46:16;18.30;;;9.18;;
22922;SDS011;11627;51.322;22.816;2024-03-08T13:48:43;19.85;;;9.77;;
22922;SDS011;11627;51.322;22.816;2024-03-08T13:51:10;19.60;;;9.80;;
22922;SDS011;11627;51.322;22.816;2024-03-08T13:53:38;20.27;;;9.88;;
22922;SDS011;11627;51.322;22.816;2024-03-08T13:56:06;16.23;;;9.35;;
22922;SDS011;11627;51.322;22.816;2024-03-08T13:58:35;17.48;;;10.15;;
22922;SDS011;11627;51.322;22.816;2024-03-08T14:01:01;22.02;;;9.68;;
22922;SDS011;11627;51.322;22.816;2024-03-08T14:03:30;19.30;;;10.13;;
22922;SDS011;11627;51.322;22.816;2024-03-08T14:05:57;18.67;;;9.45;;
22922;SDS011;11627;51.322;22.816;2024-03-08T14:08:25;22.48;;;9.77;;
22922;SDS011;11627;51.322;22.816;2024-03-08T14:10:52;21.23;;;10.10;;
22922;SDS011;11627;51.322;22.816;2024-03-08T14:13:19;21.05;;;10.60;;
22922;SDS011;11627;51.322;22.816;2024-03-08T14:15:46;21.98;;;10.50;;
22922;SDS011;11627;51.322;22.816;2024-03-08T14:18:13;18.65;;;9.95;;
22922;SDS011;11627;51.322;22.816;2024-03-08T14:20:40;18.58;;;9.93;;
22922;SDS011;11627;51.322;22.816;2024-03-08T14:23:08;17.52;;;10.20;;
22922;SDS011;11627;51.322;22.816;2024-03-08T14:25:34;17.58;;;10.55;;
22922;SDS011;11627;51.322;22.816;2024-03-08T14:28:00;18.65;;;10.90;;
22922;SDS011;11627;51.322;22.816;2024-03-08T14:30:33;21.35;;;10.75;;
22922;SDS011;11627;51.322;22.816;2024-03-08T14:33:06;20.27;;;11.75;;
22922;SDS011;11627;51.322;22.816;2024-03-08T14:35:36;19.42;;;10.95;;
22922;SDS011;11627;51.322;22.816;2024-03-08T14:38:03;18.98;;;10.93;;